createdAt,value
2022-10-03T00:02:27.272Z,3.80
2022-10-03T00:05:12.321Z,1.80
2022-10-03T00:07:58.002Z,3.00
2022-10-03T00:10:37.638Z,4.60
2022-10-03T00:13:22.280Z,2.20
2022-10-03T00:16:03.377Z,3.20
2022-10-03T00:18:45.491Z,7.70
2022-10-03T00:21:34.462Z,2.80
2022-10-03T00:24:15.496Z,5.80
2022-10-03T00:26:53.500Z,4.50
2022-10-03T00:29:41.705Z,3.20
2022-10-03T00:32:28.139Z,2.70
2022-10-03T00:35:15.113Z,4.90
2022-10-03T00:37:57.530Z,1.80
2022-10-03T00:40:40.961Z,2.60
2022-10-03T00:43:34.859Z,3.10
2022-10-03T00:46:29.995Z,3.20
2022-10-03T00:49:28.845Z,2.60
2022-10-03T00:52:18.593Z,1.20
2022-10-03T00:55:00.789Z,2.40
2022-10-03T00:57:58.928Z,2.80
2022-10-03T01:00:32.471Z,1.40
2022-10-03T01:03:29.954Z,3.80
2022-10-03T01:06:16.543Z,2.70
2022-10-03T01:09:10.269Z,1.90
2022-10-03T01:11:54.075Z,1.80
2022-10-03T01:14:45.368Z,2.60
2022-10-03T01:17:23.871Z,5.10
2022-10-03T01:20:14.390Z,3.00
2022-10-03T01:23:10.622Z,3.80
2022-10-03T01:25:46.827Z,1.80
2022-10-03T01:28:58.664Z,2.20
2022-10-03T01:31:34.732Z,3.10
2022-10-03T01:34:12.515Z,3.90
2022-10-03T01:36:53.378Z,2.90
2022-10-03T01:39:33.018Z,1.90
2022-10-03T01:42:10.248Z,2.50
2022-10-03T01:44:54.127Z,2.50
2022-10-03T01:47:29.148Z,2.30
2022-10-03T01:50:06.415Z,3.20
2022-10-03T01:52:46.193Z,3.40
2022-10-03T01:55:26.881Z,3.70
2022-10-03T01:58:02.272Z,3.70
2022-10-03T02:00:41.929Z,4.10
2022-10-03T02:03:22.793Z,5.10
2022-10-03T02:06:02.204Z,2.40
2022-10-03T02:08:47.225Z,4.10
2022-10-03T02:11:31.672Z,2.50
2022-10-03T02:14:13.122Z,2.70
2022-10-03T02:16:47.042Z,3.70
2022-10-03T02:19:23.939Z,5.00
2022-10-03T02:21:58.248Z,4.20
2022-10-03T02:24:47.983Z,5.30
2022-10-03T02:28:02.596Z,3.90
2022-10-03T02:30:38.944Z,4.10
2022-10-03T02:33:46.357Z,9.20
2022-10-03T02:36:52.920Z,3.30
2022-10-03T02:39:43.351Z,4.30
2022-10-03T02:42:41.880Z,4.50
2022-10-03T02:45:39.862Z,5.60
2022-10-03T02:48:37.316Z,3.20
2022-10-03T02:51:30.285Z,3.30
2022-10-03T02:57:46.814Z,3.00
2022-10-03T03:00:20.998Z,5.70
2022-10-03T03:03:22.841Z,3.80
2022-10-03T03:06:34.213Z,3.40
2022-10-03T03:09:35.315Z,3.60
2022-10-03T03:12:40.464Z,4.40
2022-10-03T03:15:49.182Z,6.60
2022-10-03T03:18:30.633Z,3.00
2022-10-03T03:21:17.016Z,3.80
2022-10-03T03:24:09.277Z,3.60
2022-10-03T03:26:59.553Z,3.90
2022-10-03T03:29:43.319Z,3.30
2022-10-03T03:32:27.297Z,5.10
2022-10-03T03:35:06.081Z,5.30
2022-10-03T03:37:44.537Z,3.30
2022-10-03T03:40:32.469Z,3.60
2022-10-03T03:43:19.845Z,5.20
2022-10-03T03:46:02.501Z,3.40
2022-10-03T03:51:31.139Z,4.20
2022-10-03T03:57:01.929Z,4.70
2022-10-03T03:59:44.851Z,7.30
2022-10-03T04:02:28.947Z,6.00
2022-10-03T04:05:13.838Z,3.70
2022-10-03T04:07:59.609Z,3.60
2022-10-03T04:10:42.649Z,4.30
2022-10-03T04:13:30.588Z,3.30
2022-10-03T04:16:45.584Z,6.10
2022-10-03T04:19:28.689Z,4.50
2022-10-03T04:22:14.198Z,7.60
2022-10-03T04:25:18.274Z,3.90
2022-10-03T04:28:17.777Z,8.40
2022-10-03T04:31:02.652Z,4.50
2022-10-03T04:33:43.416Z,4.30
2022-10-03T04:36:43.524Z,5.00
2022-10-03T04:39:27.620Z,7.50
2022-10-03T04:42:04.385Z,4.10
2022-10-03T04:44:44.864Z,6.90
2022-10-03T04:47:23.685Z,5.20
2022-10-03T04:50:02.297Z,4.10
2022-10-03T04:52:39.578Z,5.40
2022-10-03T04:55:24.611Z,7.10
2022-10-03T04:58:04.737Z,8.60
2022-10-03T05:00:50.832Z,5.20
2022-10-03T05:03:33.065Z,5.90
2022-10-03T05:06:09.201Z,5.00
2022-10-03T05:08:48.113Z,3.60
2022-10-03T05:11:26.279Z,7.80
2022-10-03T05:14:06.177Z,4.40
2022-10-03T05:16:46.491Z,3.30
2022-10-03T05:19:39.118Z,5.40
2022-10-03T05:22:19.517Z,9.30
2022-10-03T05:24:59.400Z,7.10
2022-10-03T05:27:37.742Z,6.10
2022-10-03T05:30:15.460Z,10.80
2022-10-03T05:32:51.606Z,7.90
2022-10-03T05:35:32.725Z,10.90
2022-10-03T05:38:20.421Z,7.40
2022-10-03T05:41:05.126Z,7.40
2022-10-03T05:43:50.562Z,7.50
2022-10-03T05:46:40.387Z,10.30
2022-10-03T05:49:27.382Z,8.40
2022-10-03T05:52:19.544Z,11.00
2022-10-03T05:55:15.849Z,15.30
2022-10-03T05:58:18.442Z,7.50
2022-10-03T06:01:07.450Z,11.00
2022-10-03T06:04:05.750Z,6.50
2022-10-03T06:06:49.703Z,6.00
2022-10-03T06:09:40.147Z,4.80
2022-10-03T06:12:15.004Z,10.00
2022-10-03T06:15:17.907Z,11.70
2022-10-03T06:18:04.723Z,10.40
2022-10-03T06:21:17.678Z,11.00
2022-10-03T06:24:22.343Z,8.30
2022-10-03T06:27:24.060Z,7.80
2022-10-03T06:30:20.543Z,10.10
2022-10-03T06:33:38.838Z,5.80
2022-10-03T06:36:36.206Z,6.50
2022-10-03T06:39:45.504Z,7.70
2022-10-03T06:42:48.163Z,5.20
2022-10-03T06:45:55.701Z,7.00
2022-10-03T06:48:51.306Z,5.80
2022-10-03T06:51:46.492Z,9.00
2022-10-03T06:54:58.349Z,9.30
2022-10-03T06:57:46.431Z,7.60
2022-10-03T07:00:21.536Z,9.30
2022-10-03T07:03:14.526Z,9.50
2022-10-03T07:09:03.113Z,8.10
2022-10-03T07:11:49.798Z,9.10
2022-10-03T07:14:53.155Z,6.00
2022-10-03T07:20:20.140Z,9.00
2022-10-03T07:23:14.628Z,10.90
2022-10-03T07:26:27.651Z,7.90
2022-10-03T07:29:15.850Z,7.80
2022-10-03T07:32:02.132Z,6.40
2022-10-03T07:35:08.208Z,3.80
2022-10-03T07:38:09.136Z,7.20
2022-10-03T07:41:00.052Z,9.70
2022-10-03T07:43:56.260Z,6.20
2022-10-03T07:47:10.673Z,8.70
2022-10-03T07:50:31.260Z,5.30
2022-10-03T07:53:17.360Z,7.00
2022-10-03T07:56:09.324Z,6.30
2022-10-03T07:59:11.613Z,3.50
2022-10-03T08:01:54.740Z,8.70
2022-10-03T08:04:51.233Z,3.30
2022-10-03T08:07:42.976Z,4.10
2022-10-03T08:10:24.541Z,3.80
2022-10-03T08:13:28.303Z,2.70
2022-10-03T08:16:16.352Z,2.10
2022-10-03T08:19:14.535Z,6.10
2022-10-03T08:21:57.210Z,3.60
2022-10-03T08:27:35.342Z,6.90
2022-10-03T08:30:21.304Z,5.40
2022-10-03T08:33:05.796Z,5.70
2022-10-03T08:35:58.836Z,4.30
2022-10-03T08:39:02.318Z,5.10
2022-10-03T08:42:11.304Z,4.80
2022-10-03T08:44:55.697Z,8.20
2022-10-03T08:48:02.707Z,3.30
2022-10-03T08:50:46.996Z,4.60
2022-10-03T08:53:47.879Z,6.80
2022-10-03T08:56:22.855Z,6.80
2022-10-03T08:59:34.500Z,7.00
2022-10-03T09:02:39.652Z,6.50
2022-10-03T09:05:47.525Z,3.70
2022-10-03T09:08:52.287Z,5.60
2022-10-03T09:11:41.141Z,3.30
2022-10-03T09:14:47.164Z,3.40
2022-10-03T09:17:57.073Z,4.50
2022-10-03T09:21:15.449Z,5.00
2022-10-03T09:24:07.204Z,1.90
2022-10-03T09:27:12.622Z,3.70
2022-10-03T09:30:20.570Z,3.70
2022-10-03T09:33:34.533Z,4.00
2022-10-03T09:36:13.212Z,4.40
2022-10-03T09:39:06.546Z,3.50
2022-10-03T09:42:13.603Z,2.00
2022-10-03T09:45:24.476Z,2.70
2022-10-03T09:48:13.343Z,3.90
2022-10-03T09:51:30.068Z,2.40
2022-10-03T09:54:35.551Z,2.30
2022-10-03T09:57:38.672Z,0.90
2022-10-03T10:00:34.981Z,3.90
2022-10-03T10:03:29.724Z,3.40
2022-10-03T10:06:24.634Z,3.60
2022-10-03T10:09:29.479Z,2.10
2022-10-03T10:12:24.474Z,4.00
2022-10-03T10:15:44.442Z,6.60
2022-10-03T10:18:35.101Z,2.30
2022-10-03T10:21:31.723Z,1.70
2022-10-03T10:24:18.742Z,2.20
2022-10-03T10:27:14.069Z,2.00
2022-10-03T10:30:20.732Z,1.80
2022-10-03T10:33:20.755Z,2.70
2022-10-03T10:36:16.900Z,2.30
2022-10-03T10:39:32.320Z,5.60
2022-10-03T10:42:37.356Z,3.90
2022-10-03T10:45:28.674Z,1.90
2022-10-03T10:48:45.770Z,1.30
2022-10-03T10:51:42.092Z,2.20
2022-10-03T10:54:55.835Z,2.30
2022-10-03T10:57:54.119Z,1.40
2022-10-03T11:00:32.640Z,2.80
2022-10-03T11:03:50.648Z,2.10
2022-10-03T11:06:54.379Z,4.20
2022-10-03T11:09:45.133Z,3.80
2022-10-03T11:12:49.461Z,8.40
2022-10-03T11:16:04.158Z,2.10
2022-10-03T11:18:56.654Z,1.70
2022-10-03T11:21:59.710Z,1.10
2022-10-03T11:25:14.604Z,2.00
2022-10-03T11:28:07.425Z,1.20
2022-10-03T11:31:01.831Z,2.00
2022-10-03T11:34:12.507Z,1.20
2022-10-03T11:37:01.887Z,3.90
2022-10-03T11:39:43.323Z,5.60
2022-10-03T11:42:23.363Z,2.70
2022-10-03T11:45:00.153Z,1.30
2022-10-03T11:47:55.277Z,2.10
2022-10-03T11:50:47.891Z,1.80
2022-10-03T11:56:07.588Z,2.20
2022-10-03T11:58:50.981Z,4.90
2022-10-03T12:01:29.048Z,2.70
2022-10-03T12:04:10.088Z,1.50
2022-10-03T12:07:10.880Z,3.70
2022-10-03T12:09:55.156Z,5.60
2022-10-03T12:12:36.029Z,2.00
2022-10-03T12:15:24.224Z,8.70
2022-10-03T12:18:05.243Z,2.60
2022-10-03T12:20:53.198Z,2.50
2022-10-03T12:23:32.907Z,2.00
2022-10-03T12:26:06.277Z,3.40
2022-10-03T12:28:41.101Z,1.60
2022-10-03T12:31:19.358Z,1.00
2022-10-03T12:33:56.387Z,1.90
2022-10-03T12:36:31.066Z,1.50
2022-10-03T12:39:14.421Z,2.40
2022-10-03T12:42:04.934Z,1.80
2022-10-03T12:44:47.268Z,4.70
2022-10-03T12:47:54.327Z,3.70
2022-10-03T12:50:39.953Z,10.10
2022-10-03T12:53:27.912Z,3.90
2022-10-03T12:56:12.804Z,3.00
2022-10-03T12:58:57.053Z,4.00
2022-10-03T13:01:40.450Z,3.90
2022-10-03T13:04:23.002Z,1.80
2022-10-03T13:07:05.919Z,4.00
2022-10-03T13:09:55.378Z,3.60
2022-10-03T13:12:39.391Z,2.60
2022-10-03T13:15:41.385Z,2.50
2022-10-03T13:18:33.604Z,3.30
2022-10-03T13:21:33.419Z,2.40
2022-10-03T13:24:07.198Z,2.00
2022-10-03T13:26:52.236Z,0.90
2022-10-03T13:29:33.217Z,2.10
2022-10-03T13:32:16.394Z,3.50
2022-10-03T13:35:24.623Z,1.30
2022-10-03T13:38:17.035Z,1.60
2022-10-03T13:40:53.022Z,2.60
2022-10-03T13:43:30.266Z,1.80
2022-10-03T13:46:03.599Z,1.40
2022-10-03T13:48:36.449Z,2.10
2022-10-03T13:51:14.665Z,2.00
2022-10-03T13:54:01.565Z,1.30
2022-10-03T13:56:44.593Z,2.60
2022-10-03T13:59:32.542Z,2.40
2022-10-03T14:02:14.833Z,4.60
2022-10-03T14:05:28.359Z,2.30
2022-10-03T14:08:09.191Z,1.60
2022-10-03T14:11:01.953Z,2.20
2022-10-03T14:16:11.468Z,2.90
2022-10-03T14:18:49.530Z,1.40
2022-10-03T14:21:47.074Z,2.10
2022-10-03T14:24:46.641Z,0.80
2022-10-03T14:27:36.297Z,1.30
2022-10-03T14:30:13.722Z,1.00
2022-10-03T14:32:54.921Z,1.50
2022-10-03T14:35:46.658Z,1.20
2022-10-03T14:39:02.459Z,1.20
2022-10-03T14:42:07.535Z,0.90
2022-10-03T14:44:43.646Z,0.50
2022-10-03T14:47:18.682Z,2.00
2022-10-03T14:49:59.060Z,1.50
2022-10-03T14:52:39.035Z,0.90
2022-10-03T14:55:17.817Z,1.70
2022-10-03T14:58:09.860Z,2.60
2022-10-03T15:00:46.119Z,1.70
2022-10-03T15:03:38.302Z,2.80
2022-10-03T15:06:37.942Z,1.50
2022-10-03T15:09:15.145Z,1.00
2022-10-03T15:11:52.474Z,1.70
2022-10-03T15:14:24.923Z,1.90
2022-10-03T15:19:31.572Z,3.50
2022-10-03T15:22:12.947Z,3.40
2022-10-03T15:24:45.468Z,3.30
2022-10-03T15:27:22.289Z,0.60
2022-10-03T15:29:57.223Z,1.40
2022-10-03T15:32:34.202Z,2.80
2022-10-03T15:35:08.091Z,3.90
2022-10-03T15:37:47.589Z,2.90
2022-10-03T15:40:39.375Z,4.00
2022-10-03T15:43:29.934Z,3.20
2022-10-03T15:46:16.765Z,3.30
2022-10-03T15:48:55.396Z,4.70
2022-10-03T15:51:28.545Z,3.90
2022-10-03T15:54:03.305Z,3.60
2022-10-03T15:56:41.552Z,4.50
2022-10-03T15:59:21.234Z,3.90
2022-10-03T16:01:55.832Z,4.60
2022-10-03T16:04:29.884Z,6.30
2022-10-03T16:07:09.670Z,7.10
2022-10-03T16:09:52.541Z,5.90
2022-10-03T16:12:55.377Z,5.80
2022-10-03T16:15:35.545Z,8.50
2022-10-03T16:18:12.768Z,5.90
2022-10-03T16:20:49.769Z,5.50
2022-10-03T16:23:23.072Z,5.90
2022-10-03T16:25:58.094Z,4.50
2022-10-03T16:28:34.671Z,3.80
2022-10-03T16:31:09.385Z,6.90
2022-10-03T16:33:44.323Z,9.60
2022-10-03T16:36:21.264Z,9.30
2022-10-03T16:38:59.389Z,6.90
2022-10-03T16:41:33.115Z,8.10
2022-10-03T16:44:11.299Z,8.60
2022-10-03T16:46:47.075Z,5.80
2022-10-03T16:49:54.931Z,5.50
2022-10-03T16:52:33.457Z,10.70
2022-10-03T16:55:08.696Z,9.40
2022-10-03T16:57:45.824Z,8.20
2022-10-03T17:00:22.228Z,4.90
2022-10-03T17:02:55.607Z,8.70
2022-10-03T17:05:28.392Z,4.70
2022-10-03T17:08:18.152Z,8.90
2022-10-03T17:10:58.840Z,11.10
2022-10-03T17:13:43.336Z,4.60
2022-10-03T17:16:22.214Z,7.40
2022-10-03T17:19:09.475Z,7.40
2022-10-03T17:21:43.732Z,6.60
2022-10-03T17:24:18.074Z,13.00
2022-10-03T17:26:53.800Z,5.20
2022-10-03T17:29:30.327Z,7.40
2022-10-03T17:32:04.550Z,3.90
2022-10-03T17:34:39.281Z,6.60
2022-10-03T17:37:22.026Z,9.00
2022-10-03T17:39:57.353Z,4.70
2022-10-03T17:42:37.367Z,4.90
2022-10-03T17:45:35.290Z,4.20
2022-10-03T17:48:15.781Z,6.60
2022-10-03T17:50:58.070Z,3.30
2022-10-03T17:53:32.140Z,6.00
2022-10-03T17:56:09.277Z,8.40
2022-10-03T17:58:45.553Z,5.80
2022-10-03T18:01:19.942Z,7.20
2022-10-03T18:03:54.880Z,5.10
2022-10-03T18:06:43.912Z,7.80
2022-10-03T18:09:26.972Z,7.10
2022-10-03T18:12:06.393Z,7.10
2022-10-03T18:14:48.194Z,6.90
2022-10-03T18:17:23.985Z,5.30
2022-10-03T18:20:25.133Z,3.60
2022-10-03T18:23:02.774Z,6.70
2022-10-03T18:26:20.678Z,7.60
2022-10-03T18:28:59.768Z,6.00
2022-10-03T18:31:35.331Z,9.50
2022-10-03T18:34:13.887Z,5.60
2022-10-03T18:36:48.944Z,10.10
2022-10-03T18:39:23.608Z,4.20
2022-10-03T18:41:59.729Z,5.90
2022-10-03T18:44:33.191Z,4.70
2022-10-03T18:47:17.473Z,8.00
2022-10-03T18:49:55.917Z,6.50
2022-10-03T18:52:33.320Z,5.00
2022-10-03T18:55:13.810Z,9.70
2022-10-03T18:57:51.320Z,8.90
2022-10-03T19:00:26.635Z,6.10
2022-10-03T19:03:02.879Z,9.30
2022-10-03T19:05:37.710Z,6.60
2022-10-03T19:08:17.732Z,6.50
2022-10-03T19:10:51.815Z,6.10
2022-10-03T19:13:33.928Z,6.40
2022-10-03T19:16:18.108Z,6.50
2022-10-03T19:19:01.875Z,6.00
2022-10-03T19:21:39.007Z,5.10
2022-10-03T19:24:17.636Z,7.90
2022-10-03T19:26:54.113Z,6.20
2022-10-03T19:29:28.944Z,8.80
2022-10-03T19:32:05.769Z,9.30
2022-10-03T19:34:40.755Z,8.30
2022-10-03T19:37:17.363Z,9.70
2022-10-03T19:39:49.548Z,8.60
2022-10-03T19:42:36.581Z,7.30
2022-10-03T19:45:15.395Z,11.10
2022-10-03T19:47:52.290Z,8.90
2022-10-03T19:50:29.980Z,11.10
2022-10-03T19:53:02.715Z,7.00
2022-10-03T19:55:39.209Z,7.20
2022-10-03T19:58:23.822Z,7.90
2022-10-03T20:00:58.055Z,11.10
2022-10-03T20:03:39.801Z,6.50
2022-10-03T20:06:19.092Z,8.10
2022-10-03T20:08:55.298Z,8.40
2022-10-03T20:11:38.329Z,10.70
2022-10-03T20:14:12.516Z,6.00
2022-10-03T20:16:49.529Z,6.50
2022-10-03T20:19:25.487Z,7.00
2022-10-03T20:21:58.886Z,9.10
2022-10-03T20:24:35.494Z,6.40
2022-10-03T20:27:21.164Z,9.80
2022-10-03T20:30:02.850Z,8.20
2022-10-03T20:32:36.160Z,8.30
2022-10-03T20:35:13.249Z,8.20
2022-10-03T20:37:50.329Z,9.60
2022-10-03T20:40:30.822Z,9.60
2022-10-03T20:43:13.256Z,12.20
2022-10-03T20:45:46.668Z,12.80
2022-10-03T20:48:22.634Z,7.30
2022-10-03T20:50:57.523Z,10.90
2022-10-03T20:53:31.104Z,10.60
2022-10-03T20:56:06.433Z,11.10
2022-10-03T20:58:42.903Z,10.20
2022-10-03T21:01:20.626Z,7.40
2022-10-03T21:04:08.402Z,9.10
2022-10-03T21:06:53.216Z,7.70
2022-10-03T21:09:35.620Z,9.10
2022-10-03T21:12:08.977Z,9.80
2022-10-03T21:14:43.128Z,9.70
2022-10-03T21:17:18.597Z,12.40
2022-10-03T21:19:54.506Z,8.30
2022-10-03T21:22:29.277Z,8.80
2022-10-03T21:25:03.580Z,7.20
2022-10-03T21:27:36.729Z,13.60
2022-10-03T21:30:19.485Z,8.10
2022-10-03T21:33:04.559Z,9.00
2022-10-03T21:35:39.190Z,8.60
2022-10-03T21:38:23.842Z,6.70
2022-10-03T21:41:13.741Z,8.90
2022-10-03T21:43:51.835Z,12.20
2022-10-03T21:46:30.204Z,8.40
2022-10-03T21:49:30.712Z,10.50
2022-10-03T21:52:20.881Z,11.70
2022-10-03T21:55:02.007Z,6.00
2022-10-03T21:57:43.905Z,10.20
2022-10-03T22:00:18.021Z,5.80
2022-10-03T22:02:59.899Z,6.30
2022-10-03T22:05:39.345Z,6.50
2022-10-03T22:08:24.297Z,4.10
2022-10-03T22:11:05.280Z,5.20
2022-10-03T22:13:40.449Z,7.00
2022-10-03T22:16:19.087Z,6.80
2022-10-03T22:19:21.458Z,5.50
2022-10-03T22:22:11.227Z,4.20
2022-10-03T22:24:53.717Z,4.80
2022-10-03T22:27:29.031Z,4.70
2022-10-03T22:30:05.825Z,4.30
2022-10-03T22:32:42.387Z,5.00
2022-10-03T22:35:22.983Z,7.00
2022-10-03T22:37:55.229Z,5.20
2022-10-03T22:40:27.841Z,7.60
2022-10-03T22:43:01.921Z,4.90
2022-10-03T22:45:37.165Z,5.50
2022-10-03T22:48:14.084Z,5.80
2022-10-03T22:50:46.261Z,5.70
2022-10-03T22:53:21.577Z,4.60
2022-10-03T22:55:58.594Z,4.30
2022-10-03T22:58:32.266Z,5.10
2022-10-03T23:01:05.254Z,5.60
2022-10-03T23:03:38.314Z,5.10
2022-10-03T23:06:39.479Z,4.00
2022-10-03T23:09:18.945Z,4.80
2022-10-03T23:11:53.016Z,4.30
2022-10-03T23:14:28.484Z,3.30
2022-10-03T23:17:09.671Z,3.20
2022-10-03T23:19:48.606Z,4.10
2022-10-03T23:22:24.642Z,3.30
2022-10-03T23:24:59.694Z,12.90
2022-10-03T23:27:57.700Z,10.10
2022-10-03T23:30:54.247Z,8.90
2022-10-03T23:33:54.067Z,6.10
2022-10-03T23:36:27.033Z,4.80
2022-10-03T23:39:02.885Z,4.40
2022-10-03T23:41:48.523Z,4.50
2022-10-03T23:44:48.923Z,3.90
2022-10-03T23:47:25.173Z,5.10
2022-10-03T23:49:57.526Z,4.20
2022-10-03T23:52:36.049Z,6.20
2022-10-03T23:55:10.032Z,3.70
2022-10-03T23:57:44.108Z,5.50
